createdAt,value
2023-07-05T00:01:24.606Z,54.77
2023-07-05T00:04:29.914Z,54.99
2023-07-05T00:07:32.112Z,54.94
2023-07-05T00:13:36.740Z,54.79
2023-07-05T00:16:39.194Z,54.90
2023-07-05T00:19:42.530Z,55.05
2023-07-05T00:22:44.737Z,54.87
2023-07-05T00:25:46.919Z,54.46
2023-07-05T00:28:50.533Z,54.89
2023-07-05T00:31:53.073Z,54.86
2023-07-05T00:34:55.355Z,54.86
2023-07-05T00:37:57.563Z,54.57
2023-07-05T00:40:59.811Z,54.50
2023-07-05T00:44:02.106Z,54.63
2023-07-05T00:47:27.056Z,54.73
2023-07-05T00:50:37.836Z,55.11
2023-07-05T00:53:40.046Z,55.20
2023-07-05T00:56:58.986Z,55.13
2023-07-05T01:00:06.180Z,55.35
2023-07-05T01:03:12.124Z,55.33
2023-07-05T01:06:15.298Z,55.54
2023-07-05T01:09:18.714Z,55.00
2023-07-05T01:12:48.357Z,54.70
2023-07-05T01:16:03.491Z,54.75
2023-07-05T01:19:38.089Z,54.77
2023-07-05T01:23:14.310Z,54.67
2023-07-05T01:26:35.126Z,55.29
2023-07-05T01:30:08.844Z,54.38
2023-07-05T01:33:15.816Z,54.54
2023-07-05T01:36:18.497Z,54.54
2023-07-05T01:39:20.659Z,54.74
2023-07-05T01:42:27.704Z,54.78
2023-07-05T01:45:41.133Z,54.35
2023-07-05T01:48:59.339Z,54.40
2023-07-05T01:52:17.167Z,54.54
2023-07-05T01:55:27.852Z,54.93
2023-07-05T01:58:32.548Z,54.61
2023-07-05T02:01:35.553Z,54.66
2023-07-05T02:04:39.355Z,54.75
2023-07-05T02:07:44.361Z,54.73
2023-07-05T02:10:46.563Z,54.40
2023-07-05T02:13:48.834Z,55.01
2023-07-05T02:16:51.025Z,54.62
2023-07-05T02:19:53.416Z,54.56
2023-07-05T02:22:58.561Z,55.20
2023-07-05T02:26:05.650Z,54.81
2023-07-05T02:29:07.867Z,54.92
2023-07-05T02:32:10.908Z,55.04
2023-07-05T02:35:13.202Z,55.42
2023-07-05T02:38:15.640Z,55.21
2023-07-05T02:41:17.857Z,54.97
2023-07-05T02:44:20.024Z,54.93
2023-07-05T02:47:22.566Z,55.51
2023-07-05T02:50:24.748Z,55.50
2023-07-05T02:53:29.845Z,55.47
2023-07-05T02:56:32.058Z,55.24
2023-07-05T02:59:34.255Z,55.32
2023-07-05T03:02:36.514Z,54.98
2023-07-05T03:05:38.769Z,54.76
2023-07-05T03:08:40.947Z,54.93
2023-07-05T03:11:43.124Z,55.43
2023-07-05T03:14:45.301Z,55.44
2023-07-05T03:17:47.587Z,55.46
2023-07-05T03:20:50.074Z,55.31
2023-07-05T03:23:52.296Z,55.49
2023-07-05T03:26:54.664Z,55.58
2023-07-05T03:29:57.148Z,55.16
2023-07-05T03:32:59.989Z,55.23
2023-07-05T03:36:12.183Z,54.84
2023-07-05T03:39:17.640Z,54.73
2023-07-05T03:42:19.928Z,54.56
2023-07-05T03:45:22.093Z,54.44
2023-07-05T03:48:24.674Z,54.62
2023-07-05T03:51:27.016Z,54.51
2023-07-05T03:54:29.457Z,54.66
2023-07-05T03:57:31.704Z,54.79
2023-07-05T04:00:33.919Z,54.93
2023-07-05T04:03:36.548Z,53.62
2023-07-05T04:06:38.826Z,51.15
2023-07-05T04:09:41.036Z,49.57
2023-07-05T04:12:43.500Z,48.91
2023-07-05T04:15:45.721Z,47.83
2023-07-05T04:18:51.066Z,47.43
2023-07-05T04:21:53.228Z,49.17
2023-07-05T04:24:55.476Z,49.47
2023-07-05T04:27:57.651Z,50.15
2023-07-05T04:31:00.382Z,49.74
2023-07-05T04:34:02.977Z,49.86
2023-07-05T04:37:05.513Z,50.53
2023-07-05T04:40:08.347Z,48.88
2023-07-05T04:43:10.616Z,47.03
2023-07-05T04:46:12.792Z,46.24
2023-07-05T04:49:15.029Z,46.15
2023-07-05T04:52:17.223Z,45.84
2023-07-05T04:55:19.427Z,45.36
2023-07-05T04:58:22.496Z,45.67
2023-07-05T05:01:24.822Z,46.65
2023-07-05T05:04:27.154Z,46.33
2023-07-05T05:07:29.406Z,46.87
2023-07-05T05:10:31.599Z,46.72
2023-07-05T05:13:35.647Z,48.15
2023-07-05T05:16:38.038Z,48.50
2023-07-05T05:19:40.408Z,48.45
2023-07-05T05:22:42.706Z,47.96
2023-07-05T05:25:45.909Z,48.84
2023-07-05T05:28:48.042Z,49.79
2023-07-05T05:31:50.934Z,49.01
2023-07-05T05:34:53.188Z,49.25
2023-07-05T05:37:55.351Z,49.62
2023-07-05T05:41:05.838Z,49.70
2023-07-05T05:44:08.029Z,49.32
2023-07-05T05:47:10.248Z,48.53
2023-07-05T05:50:12.546Z,47.80
2023-07-05T05:53:14.844Z,47.55
2023-07-05T05:56:17.043Z,47.41
2023-07-05T05:59:19.244Z,47.26
2023-07-05T06:02:21.777Z,48.36
2023-07-05T06:05:25.544Z,47.58
2023-07-05T06:08:28.864Z,47.27
2023-07-05T06:11:31.173Z,46.89
2023-07-05T06:14:33.387Z,46.81
2023-07-05T06:17:35.638Z,47.18
2023-07-05T06:20:37.903Z,46.75
2023-07-05T06:23:40.228Z,46.57
2023-07-05T06:26:42.484Z,46.22
2023-07-05T06:29:44.668Z,45.92
2023-07-05T06:32:46.941Z,47.01
2023-07-05T06:35:50.325Z,46.84
2023-07-05T06:38:52.870Z,46.90
2023-07-05T06:41:55.095Z,46.62
2023-07-05T06:44:57.353Z,46.37
2023-07-05T06:47:59.707Z,46.19
2023-07-05T06:51:02.046Z,45.97
2023-07-05T06:54:04.298Z,46.68
2023-07-05T06:57:07.008Z,46.10
2023-07-05T07:00:10.536Z,46.31
2023-07-05T07:03:12.866Z,45.89
2023-07-05T07:06:15.013Z,46.14
2023-07-05T07:09:17.264Z,45.98
2023-07-05T07:12:19.469Z,45.38
2023-07-05T07:15:21.786Z,45.70
2023-07-05T07:18:25.547Z,45.49
2023-07-05T07:21:27.773Z,45.50
2023-07-05T07:24:30.174Z,45.57
2023-07-05T07:27:32.582Z,45.63
2023-07-05T07:30:34.804Z,45.80
2023-07-05T07:33:37.173Z,45.51
2023-07-05T07:36:39.353Z,45.06
2023-07-05T07:39:41.515Z,45.57
2023-07-05T07:42:43.736Z,45.02
2023-07-05T07:45:46.003Z,44.66
2023-07-05T07:48:50.241Z,44.33
2023-07-05T07:51:52.540Z,45.00
2023-07-05T07:54:56.510Z,44.81
2023-07-05T07:57:58.695Z,44.77
2023-07-05T08:01:17.843Z,44.33
2023-07-05T08:04:20.408Z,43.64
2023-07-05T08:07:22.676Z,43.47
2023-07-05T08:10:25.046Z,43.98
2023-07-05T08:13:27.285Z,43.76
2023-07-05T08:16:29.938Z,44.07
2023-07-05T08:19:32.433Z,43.29
2023-07-05T08:22:34.749Z,42.12
2023-07-05T08:25:38.317Z,43.11
2023-07-05T08:28:40.584Z,43.06
2023-07-05T08:31:43.091Z,43.21
2023-07-05T08:34:45.460Z,43.76
2023-07-05T08:37:50.027Z,43.74
2023-07-05T08:40:53.943Z,43.25
2023-07-05T08:43:59.785Z,43.62
2023-07-05T08:47:03.960Z,41.98
2023-07-05T08:50:32.041Z,41.09
2023-07-05T08:53:48.442Z,42.24
2023-07-05T08:57:03.087Z,42.42
2023-07-05T09:00:12.477Z,42.15
2023-07-05T09:03:15.587Z,42.60
2023-07-05T09:06:26.076Z,42.70
2023-07-05T09:09:40.260Z,42.15
2023-07-05T09:12:53.675Z,41.44
2023-07-05T09:16:18.093Z,41.94
2023-07-05T09:19:33.501Z,42.07
2023-07-05T09:22:38.165Z,42.43
2023-07-05T09:25:54.398Z,40.93
2023-07-05T09:29:28.258Z,41.80
2023-07-05T09:32:41.297Z,42.00
2023-07-05T09:35:45.299Z,41.81
2023-07-05T09:38:51.107Z,41.98
2023-07-05T09:41:55.242Z,41.64
2023-07-05T09:44:57.582Z,42.17
2023-07-05T09:48:06.278Z,42.00
2023-07-05T09:51:09.534Z,42.06
2023-07-05T09:54:15.537Z,42.18
2023-07-05T09:57:25.832Z,41.62
2023-07-05T10:00:33.979Z,40.72
2023-07-05T10:03:37.718Z,41.16
2023-07-05T10:06:41.677Z,40.96
2023-07-05T10:10:06.492Z,40.63
2023-07-05T10:13:26.274Z,39.86
2023-07-05T10:16:45.225Z,40.62
2023-07-05T10:19:52.489Z,40.65
2023-07-05T10:23:00.087Z,41.17
2023-07-05T10:26:04.922Z,40.97
2023-07-05T10:29:11.739Z,40.58
2023-07-05T10:32:19.678Z,40.71
2023-07-05T10:35:22.098Z,40.14
2023-07-05T10:38:27.410Z,40.19
2023-07-05T10:41:34.134Z,39.26
2023-07-05T10:44:37.669Z,39.31
2023-07-05T10:47:40.955Z,39.49
2023-07-05T10:50:43.547Z,38.38
2023-07-05T10:53:52.000Z,38.75
2023-07-05T10:56:55.075Z,39.17
2023-07-05T11:00:02.254Z,39.15
2023-07-05T11:03:25.021Z,39.17
2023-07-05T11:06:28.632Z,38.77
2023-07-05T11:09:36.214Z,38.55
2023-07-05T11:12:38.545Z,38.37
2023-07-05T11:15:40.983Z,38.97
2023-07-05T11:18:43.223Z,38.67
2023-07-05T11:21:50.626Z,39.32
2023-07-05T11:24:52.861Z,39.12
2023-07-05T11:27:57.659Z,38.97
2023-07-05T11:31:00.505Z,38.32
2023-07-05T11:34:24.447Z,37.42
2023-07-05T11:37:26.593Z,36.98
2023-07-05T11:41:00.688Z,36.87
2023-07-05T11:44:04.252Z,37.27
2023-07-05T11:47:11.496Z,37.82
2023-07-05T11:50:16.002Z,37.66
2023-07-05T11:53:18.336Z,36.96
2023-07-05T11:56:20.780Z,36.88
2023-07-05T11:59:24.638Z,36.56
2023-07-05T12:02:39.419Z,36.50
2023-07-05T12:05:42.271Z,35.99
2023-07-05T12:08:48.000Z,35.60
2023-07-05T12:11:56.809Z,35.59
2023-07-05T12:14:59.099Z,35.91
2023-07-05T12:18:03.686Z,34.97
2023-07-05T12:21:06.962Z,35.27
2023-07-05T12:24:11.712Z,35.74
2023-07-05T12:27:29.787Z,34.79
2023-07-05T12:30:39.809Z,35.02
2023-07-05T12:33:42.064Z,34.53
2023-07-05T12:36:44.200Z,34.15
2023-07-05T12:39:46.454Z,34.42
2023-07-05T12:42:50.857Z,34.59
2023-07-05T12:45:53.049Z,34.36
2023-07-05T12:48:55.380Z,34.82
2023-07-05T12:51:59.329Z,34.82
2023-07-05T12:55:01.566Z,35.15
2023-07-05T12:58:07.278Z,34.49
2023-07-05T13:01:13.278Z,33.86
2023-07-05T13:04:18.694Z,34.09
2023-07-05T13:07:24.168Z,34.08
2023-07-05T13:10:26.914Z,33.77
2023-07-05T13:13:35.257Z,33.80
2023-07-05T13:16:57.829Z,33.87
2023-07-05T13:20:14.628Z,34.18
2023-07-05T13:23:28.533Z,33.27
2023-07-05T13:26:33.650Z,32.98
2023-07-05T13:29:37.288Z,32.93
2023-07-05T13:32:46.977Z,32.29
2023-07-05T13:35:49.780Z,32.74
2023-07-05T13:38:52.722Z,32.36
2023-07-05T13:41:55.844Z,32.72
2023-07-05T13:44:58.042Z,31.11
2023-07-05T13:48:01.270Z,31.16
2023-07-05T13:51:03.772Z,31.10
2023-07-05T13:54:05.950Z,30.58
2023-07-05T13:57:17.561Z,30.20
2023-07-05T14:00:20.079Z,30.26
2023-07-05T14:03:24.999Z,29.59
2023-07-05T14:06:34.761Z,30.00
2023-07-05T14:09:38.546Z,29.99
2023-07-05T14:12:40.877Z,29.74
2023-07-05T14:15:44.904Z,29.65
2023-07-05T14:18:47.205Z,29.67
2023-07-05T14:21:49.651Z,30.03
2023-07-05T14:24:52.463Z,30.95
2023-07-05T14:27:54.649Z,30.21
2023-07-05T14:30:59.540Z,31.46
2023-07-05T14:34:01.821Z,30.47
2023-07-05T14:37:04.499Z,30.30
2023-07-05T14:40:07.454Z,30.63
2023-07-05T14:43:11.437Z,30.70
2023-07-05T14:46:13.703Z,30.79
2023-07-05T14:49:15.998Z,31.02
2023-07-05T14:52:18.329Z,31.00
2023-07-05T14:55:22.953Z,31.15
2023-07-05T14:58:25.444Z,32.14
2023-07-05T15:01:27.741Z,31.50
2023-07-05T15:04:30.070Z,31.72
2023-07-05T15:07:32.296Z,32.25
2023-07-05T15:10:35.006Z,31.19
2023-07-05T15:13:43.454Z,30.92
2023-07-05T15:16:45.791Z,30.60
2023-07-05T15:19:50.583Z,30.71
2023-07-05T15:22:52.893Z,30.64
2023-07-05T15:25:56.232Z,30.83
2023-07-05T15:29:01.119Z,30.59
2023-07-05T15:32:03.501Z,31.23
2023-07-05T15:35:07.912Z,30.21
2023-07-05T15:38:10.097Z,30.40
2023-07-05T15:41:13.483Z,30.59
2023-07-05T15:44:17.520Z,31.17
2023-07-05T15:47:22.187Z,29.86
2023-07-05T15:50:28.748Z,30.18
2023-07-05T15:53:31.085Z,30.02
2023-07-05T15:56:34.159Z,31.21
2023-07-05T15:59:36.608Z,30.16
2023-07-05T16:02:42.269Z,30.26
2023-07-05T16:05:44.667Z,30.69
2023-07-05T16:08:48.464Z,30.76
2023-07-05T16:11:50.781Z,30.80
2023-07-05T16:14:52.963Z,31.51
2023-07-05T16:17:55.265Z,30.15
2023-07-05T16:20:59.515Z,30.07
2023-07-05T16:24:01.740Z,30.31
2023-07-05T16:27:06.071Z,31.16
2023-07-05T16:30:09.919Z,29.91
2023-07-05T16:33:12.894Z,31.04
2023-07-05T16:36:22.024Z,31.22
2023-07-05T16:39:24.250Z,30.58
2023-07-05T16:42:31.831Z,30.32
2023-07-05T16:45:38.246Z,30.46
2023-07-05T16:48:40.946Z,30.54
2023-07-05T16:51:43.308Z,31.22
2023-07-05T16:54:45.558Z,31.70
2023-07-05T16:57:47.757Z,30.04
2023-07-05T17:01:02.037Z,31.08
2023-07-05T17:04:04.828Z,31.16
2023-07-05T17:07:07.225Z,31.61
2023-07-05T17:10:09.477Z,31.20
2023-07-05T17:13:11.648Z,32.26
2023-07-05T17:16:16.233Z,31.21
2023-07-05T17:19:18.628Z,31.92
2023-07-05T17:22:20.841Z,32.50
2023-07-05T17:25:23.174Z,32.15
2023-07-05T17:28:27.402Z,32.02
2023-07-05T17:31:29.849Z,31.71
2023-07-05T17:34:32.388Z,32.22
2023-07-05T17:37:35.662Z,32.49
2023-07-05T17:40:38.513Z,32.88
2023-07-05T17:43:40.725Z,33.28
2023-07-05T17:46:44.546Z,33.04
2023-07-05T17:49:46.815Z,33.30
2023-07-05T17:52:49.513Z,33.32
2023-07-05T17:55:54.740Z,33.46
2023-07-05T17:58:57.635Z,34.02
2023-07-05T18:01:59.873Z,34.08
2023-07-05T18:05:02.238Z,34.82
2023-07-05T18:08:04.747Z,34.68
2023-07-05T18:11:07.368Z,34.95
2023-07-05T18:14:09.586Z,34.56
2023-07-05T18:17:12.283Z,35.03
2023-07-05T18:20:16.097Z,35.14
2023-07-05T18:23:18.824Z,35.35
2023-07-05T18:26:22.890Z,35.18
2023-07-05T18:29:25.058Z,35.58
2023-07-05T18:32:27.409Z,35.40
2023-07-05T18:35:29.688Z,35.60
2023-07-05T18:38:32.617Z,35.98
2023-07-05T18:41:34.836Z,35.93
2023-07-05T18:44:38.609Z,36.37
2023-07-05T18:47:40.882Z,36.69
2023-07-05T18:50:48.861Z,36.42
2023-07-05T18:53:51.095Z,37.40
2023-07-05T18:56:53.441Z,37.37
2023-07-05T18:59:55.702Z,37.24
2023-07-05T19:02:57.896Z,37.70
2023-07-05T19:06:04.851Z,37.85
2023-07-05T19:09:09.001Z,38.05
2023-07-05T19:12:13.309Z,37.93
2023-07-05T19:15:15.992Z,38.55
2023-07-05T19:18:18.859Z,38.92
2023-07-05T19:21:21.320Z,38.88
2023-07-05T19:24:24.265Z,38.82
2023-07-05T19:27:26.579Z,39.18
2023-07-05T19:30:30.334Z,39.15
2023-07-05T19:33:33.566Z,39.35
2023-07-05T19:36:35.813Z,39.57
2023-07-05T19:39:38.019Z,39.71
2023-07-05T19:42:40.413Z,40.04
2023-07-05T19:45:42.932Z,40.05
2023-07-05T19:48:45.125Z,40.30
2023-07-05T19:51:47.322Z,40.78
2023-07-05T19:54:49.480Z,40.58
2023-07-05T19:57:51.691Z,40.75
2023-07-05T20:00:54.460Z,41.18
2023-07-05T20:03:56.714Z,40.87
2023-07-05T20:06:58.917Z,41.04
2023-07-05T20:10:02.314Z,40.92
2023-07-05T20:13:05.129Z,41.26
2023-07-05T20:16:07.942Z,42.14
2023-07-05T20:19:10.156Z,42.01
2023-07-05T20:22:12.322Z,42.90
2023-07-05T20:25:14.593Z,42.83
2023-07-05T20:28:19.979Z,43.85
2023-07-05T20:31:22.581Z,44.03
2023-07-05T20:34:25.066Z,43.95
2023-07-05T20:37:27.322Z,44.40
2023-07-05T20:40:31.315Z,44.80
2023-07-05T20:43:33.534Z,45.06
2023-07-05T20:46:35.831Z,44.68
2023-07-05T20:49:39.833Z,45.47
2023-07-05T20:52:42.742Z,45.32
2023-07-05T20:55:45.009Z,44.90
2023-07-05T20:58:48.040Z,45.36
2023-07-05T21:01:50.388Z,45.54
2023-07-05T21:04:52.671Z,45.71
2023-07-05T21:07:55.064Z,45.49
2023-07-05T21:10:57.273Z,46.31
2023-07-05T21:13:59.774Z,46.42
2023-07-05T21:17:02.179Z,46.72
2023-07-05T21:20:04.806Z,47.06
2023-07-05T21:23:06.962Z,46.87
2023-07-05T21:26:10.639Z,46.80
2023-07-05T21:29:12.834Z,47.07
2023-07-05T21:32:15.024Z,47.42
2023-07-05T21:35:18.589Z,47.35
2023-07-05T21:38:20.800Z,47.55
2023-07-05T21:41:23.050Z,47.30
2023-07-05T21:44:25.286Z,47.84
2023-07-05T21:47:27.546Z,47.95
2023-07-05T21:50:30.117Z,47.95
2023-07-05T21:53:32.262Z,48.20
2023-07-05T21:56:34.473Z,48.24
2023-07-05T21:59:36.749Z,48.22
2023-07-05T22:02:38.983Z,48.22
2023-07-05T22:05:41.330Z,48.15
2023-07-05T22:08:43.530Z,47.27
2023-07-05T22:11:46.715Z,47.56
2023-07-05T22:14:56.326Z,48.69
2023-07-05T22:18:04.379Z,48.22
2023-07-05T22:21:07.468Z,48.14
2023-07-05T22:24:09.750Z,48.76
2023-07-05T22:27:11.945Z,48.78
2023-07-05T22:30:16.038Z,49.55
2023-07-05T22:33:19.625Z,49.37
2023-07-05T22:36:22.644Z,49.56
2023-07-05T22:39:24.955Z,49.37
2023-07-05T22:42:27.464Z,49.34
2023-07-05T22:45:29.938Z,49.97
2023-07-05T22:48:34.144Z,49.56
2023-07-05T22:51:39.364Z,48.70
2023-07-05T22:54:41.573Z,48.21
2023-07-05T22:57:44.218Z,47.97
2023-07-05T23:00:49.945Z,48.08
2023-07-05T23:03:54.743Z,48.25
2023-07-05T23:06:56.967Z,47.76
2023-07-05T23:09:59.123Z,47.87
2023-07-05T23:13:01.581Z,48.15
2023-07-05T23:16:05.207Z,48.08
2023-07-05T23:19:08.314Z,48.10
2023-07-05T23:22:14.920Z,48.13
2023-07-05T23:25:17.383Z,47.91
2023-07-05T23:28:20.578Z,48.35
2023-07-05T23:31:27.717Z,48.15
2023-07-05T23:34:30.526Z,48.16
2023-07-05T23:37:32.686Z,48.37
2023-07-05T23:40:36.291Z,48.64
2023-07-05T23:43:40.207Z,48.19
2023-07-05T23:46:42.482Z,48.51
2023-07-05T23:49:45.505Z,48.01
2023-07-05T23:52:47.676Z,48.00
2023-07-05T23:55:54.348Z,47.55
2023-07-05T23:58:57.522Z,47.51
